Time;durP1;ratioP1;P1;durP2;ratioP2;P2;SDS_P1;SDS_P2;PMS_P1;PMS_P2;Temp;Humidity;BMP_temperature;BMP_pressure;BME280_temperature;BME280_humidity;BME280_pressure;Samples;Min_cycle;Max_cycle;Signal;HPM_P1;HPM_P2
2022/07/16 00:01:22;;;;;;;3.95;0.68;;;;;;;14.71;79.96;101734.88;2097099;28;20084;-69
2022/07/16 00:01:41;;;;;;;;;;;;;;;14.65;80.56;101725.13;2097737;28;20171;-69
2022/07/16 00:02:43;;;;;;;3.58;1.02;;;;;;;14.66;80.41;101731.41;2096938;28;26982;-69
2022/07/16 00:03:46;;;;;;;1.50;0.50;;;;;;;14.63;80.31;101726.13;2097016;28;20037;-69
2022/07/16 00:04:48;;;;;;;3.92;0.63;;;;;;;14.61;80.85;101725.28;2104938;28;20922;-69
2022/07/16 00:05:49;;;;;;;1.88;0.60;;;;;;;14.60;80.58;101724.38;2103947;28;34977;-69
2022/07/16 00:06:51;;;;;;;2.58;0.70;;;;;;;14.59;80.46;101719.94;2096769;28;20048;-70
2022/07/16 00:07:54;;;;;;;3.53;0.55;;;;;;;14.57;80.21;101731.63;2096592;28;36200;-69
2022/07/16 00:08:56;;;;;;;3.25;0.80;;;;;;;14.57;81.05;101720.84;2104287;28;27589;-70
2022/07/16 00:09:58;;;;;;;3.25;0.80;;;;;;;14.56;80.84;101719.97;2104184;28;24068;-69
2022/07/16 00:11:00;;;;;;;3.38;0.70;;;;;;;14.59;80.92;101716.31;2095743;28;38330;-69
2022/07/16 00:12:02;;;;;;;3.83;0.77;;;;;;;14.62;80.85;101724.34;2096283;28;33638;-70
2022/07/16 00:13:06;;;;;;;3.00;0.85;;;;;;;14.63;80.34;101720.72;2096926;28;20929;-69
2022/07/16 00:14:08;;;;;;;1.85;0.77;;;;;;;14.63;80.44;101721.59;2095778;28;34670;-70
2022/07/16 00:15:10;;;;;;;2.25;0.65;;;;;;;14.63;80.06;101718.91;2096666;28;20041;-69
2022/07/16 00:16:12;;;;;;;3.80;0.90;;;;;;;14.65;80.28;101719.75;2096174;28;28491;-69
2022/07/16 00:17:14;;;;;;;3.15;0.43;;;;;;;14.65;80.46;101719.75;2096837;28;20118;-69
2022/07/16 00:19:36;;;;;;;;;;;;;;;14.64;80.40;101715.31;2097094;28;26034;-69
2022/07/16 00:20:41;;;;;;;2.33;0.65;;;;;;;14.66;80.16;101720.63;2097056;28;20058;-69
2022/07/16 00:21:46;;;;;;;3.47;0.68;;;;;;;14.66;80.39;101715.22;2096016;28;22299;-69
2022/07/16 00:22:52;;;;;;;3.42;0.80;;;;;;;14.66;80.09;101717.94;2096456;28;20429;-70
2022/07/16 00:23:54;;;;;;;2.13;0.77;;;;;;;14.67;79.84;101711.63;2097199;28;21122;-69
2022/07/16 00:24:56;;;;;;;2.85;0.60;;;;;;;14.64;80.08;101711.69;2096014;28;21859;-69
2022/07/16 00:25:58;;;;;;;2.70;0.77;;;;;;;14.63;80.20;101709.94;2096702;28;20961;-69
2022/07/16 00:27:00;;;;;;;2.63;0.50;;;;;;;14.63;80.47;101702.75;2096700;28;25332;-69
2022/07/16 00:28:02;;;;;;;2.42;0.75;;;;;;;14.62;80.36;101705.47;2096074;28;21003;-69
2022/07/16 00:29:04;;;;;;;3.50;0.60;;;;;;;14.59;80.36;101709.16;2096319;28;20036;-69
2022/07/16 00:30:07;;;;;;;2.80;0.60;;;;;;;14.60;80.50;101710.91;2097264;28;20052;-69
2022/07/16 00:31:09;;;;;;;3.25;0.70;;;;;;;14.62;80.46;101706.34;2095397;28;37561;-69
2022/07/16 00:32:11;;;;;;;2.13;0.70;;;;;;;14.63;80.26;101715.34;2104397;28;25281;-69
2022/07/16 00:33:13;;;;;;;3.47;0.80;;;;;;;14.61;79.82;101707.28;2103852;28;24370;-69
2022/07/16 00:34:16;;;;;;;1.77;0.60;;;;;;;14.60;80.09;101701.94;2104515;28;32184;-69
2022/07/16 00:35:18;;;;;;;2.78;0.80;;;;;;;14.59;80.02;101708.25;2104147;28;20032;-69
2022/07/16 00:36:20;;;;;;;2.30;0.93;;;;;;;14.58;80.07;101704.66;2097015;28;20937;-69
2022/07/16 00:37:24;;;;;;;1.80;0.80;;;;;;;14.57;80.21;101707.38;2095608;28;20044;-69
2022/07/16 00:38:26;;;;;;;2.30;0.73;;;;;;;14.57;80.45;101704.66;2096184;28;26818;-69
2022/07/16 00:39:28;;;;;;;3.63;0.63;;;;;;;14.55;80.49;101707.41;2096001;28;25529;-69
2022/07/16 00:40:30;;;;;;;2.75;0.60;;;;;;;14.52;80.20;101699.44;2096924;28;22123;-69
2022/07/16 00:41:33;;;;;;;2.85;0.70;;;;;;;14.49;80.54;101697.69;2095785;28;38168;-69
2022/07/16 00:42:35;;;;;;;2.65;0.77;;;;;;;14.48;80.61;101695.03;2104350;28;21315;-69
2022/07/16 00:43:53;;;;;;;1.40;0.50;;;;;;;14.46;80.33;101686.09;2103998;28;21675;-69
2022/07/16 00:44:55;;;;;;;4.43;0.93;;;;;;;14.43;80.53;101688.91;2096714;28;26659;-69
2022/07/16 00:45:56;;;;;;;3.50;0.55;;;;;;;14.42;80.44;101688.00;2096457;28;26404;-69
2022/07/16 00:47:01;;;;;;;1.17;0.60;;;;;;;14.40;80.63;101695.25;2096709;28;24504;-69
2022/07/16 00:48:07;;;;;;;4.25;0.70;;;;;;;14.38;80.86;101696.22;2096706;28;20192;-69
2022/07/16 00:49:13;;;;;;;2.17;0.70;;;;;;;14.37;80.70;101687.22;2104012;28;21223;-70
2022/07/16 00:50:15;;;;;;;2.45;1.00;;;;;;;14.39;80.86;101684.50;2103374;28;23929;-69
2022/07/16 00:51:17;;;;;;;2.45;0.60;;;;;;;14.36;80.51;101692.69;2095752;28;20122;-69
2022/07/16 00:52:19;;;;;;;4.38;0.82;;;;;;;14.35;80.67;101689.09;2104413;28;20803;-69
2022/07/16 00:53:21;;;;;;;2.70;0.80;;;;;;;14.34;80.68;101692.72;2103975;28;23798;-69
2022/07/16 00:54:23;;;;;;;2.55;0.60;;;;;;;14.32;81.02;101695.47;2104271;28;24918;-70
2022/07/16 00:55:25;;;;;;;2.90;0.90;;;;;;;14.33;81.19;101694.50;2104233;28;27340;-69
2022/07/16 00:56:27;;;;;;;3.20;0.60;;;;;;;14.37;80.58;101689.06;2096798;28;26794;-70
2022/07/16 00:57:29;;;;;;;3.92;0.50;;;;;;;14.33;80.82;101696.31;2096685;28;21476;-69
2022/07/16 00:58:33;;;;;;;3.47;0.80;;;;;;;14.33;80.86;101690.94;2095776;28;30601;-69
2022/07/16 00:59:37;;;;;;;3.05;0.95;;;;;;;14.38;80.82;101694.41;2096509;28;20033;-69
2022/07/16 01:00:40;;;;;;;1.52;0.50;;;;;;;14.39;80.69;101693.50;2096899;28;20134;-70
2022/07/16 01:01:42;;;;;;;2.03;0.60;;;;;;;14.41;80.50;101697.03;2096760;28;20114;-69
2022/07/16 01:02:49;;;;;;;3.08;0.50;;;;;;;14.42;80.58;101687.13;2096445;28;20858;-69
2022/07/16 01:03:53;;;;;;;4.50;0.60;;;;;;;14.45;80.16;101690.63;2096420;28;27562;-69
2022/07/16 01:04:55;;;;;;;2.20;0.40;;;;;;;14.46;80.08;101686.09;2096636;28;20052;-69
2022/07/16 01:05:57;;;;;;;3.42;0.50;;;;;;;14.45;80.09;101685.22;2096078;28;32309;-69
2022/07/16 01:07:03;;;;;;;3.20;0.50;;;;;;;14.48;80.17;101690.53;2103850;28;31984;-69
2022/07/16 01:08:08;;;;;;;2.90;0.80;;;;;;;14.50;80.47;101688.69;2103267;28;24151;-69
2022/07/16 01:09:10;;;;;;;2.80;0.70;;;;;;;14.50;80.28;101683.28;2095745;28;22680;-69
2022/07/16 01:10:13;;;;;;;2.42;0.60;;;;;;;14.55;79.96;101683.16;2095989;28;24063;-69
2022/07/16 01:11:19;;;;;;;2.10;0.60;;;;;;;14.56;80.47;101686.75;2096512;28;22004;-70
2022/07/16 01:12:21;;;;;;;2.20;0.80;;;;;;;14.57;80.63;101683.13;2096493;28;25382;-69
2022/07/16 01:13:23;;;;;;;2.25;0.60;;;;;;;14.57;80.12;101688.50;2095577;28;24185;-70
2022/07/16 01:14:26;;;;;;;4.95;0.68;;;;;;;14.58;81.15;101680.41;2104066;28;25373;-70
2022/07/16 01:15:28;;;;;;;1.98;0.70;;;;;;;14.60;81.13;101683.06;2103032;28;24188;-70
2022/07/16 01:16:30;;;;;;;2.70;0.63;;;;;;;14.58;81.30;101679.53;2096899;28;27936;-70
2022/07/16 01:17:32;;;;;;;3.35;0.82;;;;;;;14.57;81.30;101677.72;2096302;28;32826;-70
2022/07/16 01:18:38;;;;;;;4.03;0.75;;;;;;;14.57;81.29;101688.50;2104015;28;23572;-70
2022/07/16 01:19:40;;;;;;;1.45;0.70;;;;;;;14.55;81.99;101685.84;2103333;28;31888;-70
2022/07/16 01:20:42;;;;;;;2.45;0.50;;;;;;;14.55;82.58;101685.84;2095744;28;36782;-70
2022/07/16 01:21:44;;;;;;;3.20;0.60;;;;;;;14.54;82.22;101685.91;2096536;28;20152;-71
2022/07/16 01:22:46;;;;;;;1.67;0.60;;;;;;;14.52;82.44;101684.13;2096315;28;30363;-71
2022/07/16 01:23:52;;;;;;;4.03;0.70;;;;;;;14.52;83.23;101685.97;2096660;28;20049;-70
2022/07/16 01:24:54;;;;;;;2.28;0.80;;;;;;;14.51;83.33;101685.03;2095900;28;33904;-70
2022/07/16 01:25:56;;;;;;;2.15;0.77;;;;;;;14.51;83.80;101686.88;2096463;28;20080;-70
2022/07/16 01:26:58;;;;;;;2.65;0.88;;;;;;;14.49;84.09;101689.59;2096338;28;20905;-70
2022/07/16 01:27:59;;;;;;;2.55;0.80;;;;;;;14.48;83.81;101684.25;2096512;28;24722;-70
2022/07/16 01:29:04;;;;;;;1.95;1.10;;;;;;;14.48;84.49;101690.53;2096064;28;26195;-70
2022/07/16 01:30:08;;;;;;;4.47;1.10;;;;;;;14.46;84.76;101687.00;2096460;28;20037;-70
2022/07/16 01:31:11;;;;;;;3.28;0.98;;;;;;;14.45;84.93;101685.22;2103397;28;20145;-70
2022/07/16 01:32:13;;;;;;;5.25;1.17;;;;;;;14.46;85.51;101688.78;2103049;28;22436;-70
2022/07/16 01:33:27;;;;;;;4.03;1.27;;;;;;;14.42;85.84;101689.81;2096033;28;20037;-70
2022/07/16 01:34:29;;;;;;;4.00;1.05;;;;;;;14.40;85.72;101684.47;2096750;28;21476;-67
2022/07/16 01:35:33;;;;;;;3.97;1.33;;;;;;;14.38;86.98;101683.63;2104031;28;20041;-66
2022/07/16 01:36:38;;;;;;;2.17;1.08;;;;;;;14.37;87.30;101691.75;2102963;28;29756;-65
2022/07/16 01:37:40;;;;;;;3.13;1.27;;;;;;;14.32;88.15;101695.47;2096057;28;25733;-65
2022/07/16 01:38:45;;;;;;;3.90;1.35;;;;;;;14.30;88.04;101702.69;2095582;28;37946;-65
2022/07/16 01:39:47;;;;;;;3.45;1.33;;;;;;;14.26;89.25;101695.59;2095882;28;21476;-65
2022/07/16 01:40:49;;;;;;;4.95;1.25;;;;;;;14.22;89.54;101699.31;2096332;28;22056;-65
2022/07/16 01:41:53;;;;;;;2.83;1.42;;;;;;;14.20;89.86;101697.59;2096471;28;21913;-65
2022/07/16 01:42:56;;;;;;;2.25;1.33;;;;;;;14.17;89.96;101694.97;2096629;28;20045;-64
2022/07/16 01:43:57;;;;;;;3.80;1.75;;;;;;;14.15;89.71;101699.50;2095857;28;22174;-65
2022/07/16 01:45:02;;;;;;;3.08;1.23;;;;;;;14.13;90.79;101700.41;2096447;28;20041;-64
2022/07/16 01:46:04;;;;;;;3.28;1.63;;;;;;;14.11;91.02;101699.59;2095960;28;26835;-65
2022/07/16 01:47:07;;;;;;;2.03;1.60;;;;;;;14.09;91.94;101696.06;2096494;28;21958;-65
2022/07/16 01:48:09;;;;;;;6.30;2.03;;;;;;;14.07;91.97;101703.28;2096163;28;24982;-65
2022/07/16 01:49:11;;;;;;;2.75;1.52;;;;;;;14.03;91.98;101698.91;2096341;28;20048;-65
2022/07/16 01:50:13;;;;;;;5.45;2.17;;;;;;;14.03;92.51;101706.09;2095416;28;24831;-65
2022/07/16 01:51:17;;;;;;;4.05;1.60;;;;;;;14.01;91.81;101706.13;2096216;28;20749;-65
2022/07/16 01:52:21;;;;;;;3.50;1.55;;;;;;;14.00;92.17;101709.75;2095862;28;32503;-65
2022/07/16 01:53:23;;;;;;;3.78;1.70;;;;;;;14.00;91.98;101712.44;2095545;28;29258;-66
2022/07/16 01:54:25;;;;;;;2.88;1.85;;;;;;;14.01;92.02;101711.50;2096419;28;20613;-66
2022/07/16 01:55:27;;;;;;;2.28;1.65;;;;;;;14.01;92.44;101716.00;2095909;28;25534;-66
2022/07/16 01:56:29;;;;;;;5.65;1.65;;;;;;;14.00;92.56;101706.16;2096009;28;20987;-66
2022/07/16 01:57:31;;;;;;;4.90;1.70;;;;;;;14.02;93.57;101712.41;2096156;28;28665;-66
2022/07/16 01:58:32;;;;;;;3.72;1.95;;;;;;;14.00;93.50;101704.38;2095531;28;33908;-65
2022/07/16 01:59:34;;;;;;;5.32;1.98;;;;;;;14.00;93.40;101714.22;2096375;28;20250;-65
2022/07/16 02:00:38;;;;;;;3.20;1.80;;;;;;;13.97;93.46;101712.50;2096370;28;20822;-65
2022/07/16 02:01:40;;;;;;;1.88;1.50;;;;;;;13.98;93.86;101711.59;2097558;28;20045;-66
2022/07/16 02:02:42;;;;;;;2.85;1.70;;;;;;;13.97;93.85;101715.19;2097651;28;25499;-66
2022/07/16 02:03:46;;;;;;;4.90;2.22;;;;;;;13.97;93.54;101714.31;2096862;28;27410;-66
2022/07/16 02:04:48;;;;;;;4.78;2.20;;;;;;;13.97;93.97;101709.81;2096658;28;33146;-66
2022/07/16 02:05:50;;;;;;;4.65;1.92;;;;;;;13.98;93.61;101716.06;2097896;28;21117;-65
2022/07/16 02:06:51;;;;;;;3.00;1.90;;;;;;;13.98;93.67;101708.91;2097064;28;33785;-66
2022/07/16 02:07:53;;;;;;;4.30;1.92;;;;;;;13.98;93.97;101708.00;2105172;28;28447;-66
2022/07/16 02:08:58;;;;;;;3.50;2.20;;;;;;;13.97;93.76;101712.50;2104652;28;25002;-66
2022/07/16 02:10:00;;;;;;;4.82;2.05;;;;;;;13.97;93.79;101712.50;2097591;28;20706;-66
2022/07/16 02:11:02;;;;;;;5.03;2.38;;;;;;;13.98;93.79;101714.28;2097593;28;22367;-66
2022/07/16 02:12:04;;;;;;;3.95;2.40;;;;;;;13.98;93.84;101716.97;2097666;28;20650;-67
2022/07/16 02:13:07;;;;;;;4.82;2.05;;;;;;;13.97;94.19;101712.50;2096526;28;41270;-67
2022/07/16 02:14:10;;;;;;;2.88;2.10;;;;;;;13.99;94.14;101712.47;2097772;28;20037;-67
2022/07/16 02:15:12;;;;;;;5.25;2.13;;;;;;;13.97;94.34;101715.19;2097414;28;20909;-66
2022/07/16 02:16:14;;;;;;;3.38;2.03;;;;;;;13.97;94.40;101712.50;2096580;28;26501;-67
2022/07/16 02:17:15;;;;;;;2.53;2.00;;;;;;;13.97;94.12;101704.44;2097304;28;27215;-67
2022/07/16 02:18:17;;;;;;;5.07;2.20;;;;;;;13.98;94.38;101711.59;2097170;28;24414;-67
2022/07/16 02:19:19;;;;;;;4.13;2.22;;;;;;;13.97;94.21;101704.44;2097265;28;23491;-67
2022/07/16 02:20:21;;;;;;;4.07;2.35;;;;;;;13.98;94.70;101713.38;2097310;28;28075;-67
2022/07/16 02:21:23;;;;;;;3.72;2.30;;;;;;;13.98;94.47;101711.59;2097356;28;22123;-67
2022/07/16 02:22:25;;;;;;;4.30;2.35;;;;;;;13.97;94.12;101709.81;2105359;28;21380;-67
2022/07/16 02:23:26;;;;;;;4.22;2.45;;;;;;;13.99;94.56;101716.03;2104563;28;26887;-67
2022/07/16 02:24:28;;;;;;;6.75;2.90;;;;;;;13.98;94.80;101713.38;2097068;28;20098;-68
2022/07/16 02:25:30;;;;;;;3.15;1.90;;;;;;;13.97;94.87;101711.63;2097132;28;38341;-67
2022/07/16 02:26:32;;;;;;;7.60;2.50;;;;;;;13.97;94.70;101711.63;2096902;28;29200;-68
2022/07/16 02:27:35;;;;;;;7.05;2.65;;;;;;;13.97;94.88;101717.03;2097740;28;20037;-68
2022/07/16 02:28:40;;;;;;;7.25;2.33;;;;;;;13.96;94.75;101718.81;2097633;28;20048;-67
2022/07/16 02:29:42;;;;;;;3.13;2.42;;;;;;;13.97;95.40;101714.31;2096300;28;28573;-67
2022/07/16 02:30:48;;;;;;;5.65;2.40;;;;;;;13.94;95.06;101709.88;2097088;28;33806;-67
2022/07/16 02:31:50;;;;;;;3.90;2.35;;;;;;;13.94;95.39;101709.88;2097622;28;22999;-67
2022/07/16 02:32:52;;;;;;;6.35;2.30;;;;;;;13.94;95.44;101710.78;2098086;28;20917;-68
2022/07/16 02:33:53;;;;;;;5.32;2.25;;;;;;;13.92;94.86;101709.91;2096557;28;33933;-67
2022/07/16 02:34:55;;;;;;;3.83;2.22;;;;;;;13.92;95.21;101706.34;2097744;28;20044;-67
2022/07/16 02:35:57;;;;;;;5.65;2.80;;;;;;;13.94;95.71;101715.25;2097602;28;20122;-68
2022/07/16 02:37:01;;;;;;;2.85;2.30;;;;;;;13.93;95.20;101713.50;2104604;28;30572;-68
2022/07/16 02:38:08;;;;;;;3.83;2.00;;;;;;;13.93;95.77;101708.13;2104106;28;29539;-68
2022/07/16 02:39:09;;;;;;;4.90;2.30;;;;;;;13.92;95.76;101711.72;2097712;28;20037;-68
2022/07/16 02:40:13;;;;;;;4.10;2.20;;;;;;;13.91;96.13;101715.38;2097217;28;23179;-68
2022/07/16 02:41:15;;;;;;;5.72;2.33;;;;;;;13.90;96.04;101716.28;2097546;28;20894;-68
2022/07/16 02:42:17;;;;;;;3.85;2.40;;;;;;;13.90;96.42;101713.56;2096429;28;41176;-68
2022/07/16 02:43:20;;;;;;;6.65;3.13;;;;;;;13.88;96.19;101713.63;2097958;28;20033;-68
2022/07/16 02:44:22;;;;;;;4.40;2.42;;;;;;;13.88;96.14;101719.00;2097378;28;20037;-68
2022/07/16 02:45:23;;;;;;;4.68;2.45;;;;;;;13.88;96.96;101720.81;2097266;28;30899;-68
2022/07/16 02:46:27;;;;;;;7.72;2.35;;;;;;;13.88;96.77;101727.06;2096881;28;37122;-68
2022/07/16 02:47:32;;;;;;;4.30;2.20;;;;;;;13.87;96.66;101724.41;2097184;28;28309;-68
2022/07/16 02:48:33;;;;;;;4.10;2.47;;;;;;;13.87;96.94;101724.41;2096245;28;35037;-68
2022/07/16 02:49:35;;;;;;;6.32;2.33;;;;;;;13.85;96.28;101726.25;2097450;28;21504;-68
2022/07/16 02:50:41;;;;;;;5.55;2.95;;;;;;;13.83;96.65;101725.41;2096650;28;38414;-68
2022/07/16 02:51:43;;;;;;;5.15;2.38;;;;;;;13.81;96.30;101732.66;2105169;28;20084;-68
2022/07/16 02:52:46;;;;;;;5.55;2.50;;;;;;;13.81;97.19;101727.25;2104114;28;22922;-69
2022/07/16 02:53:48;;;;;;;5.13;2.80;;;;;;;13.77;96.87;101729.16;2096927;28;20045;-68
2022/07/16 02:54:49;;;;;;;5.25;2.90;;;;;;;13.73;97.34;101728.34;2088123;28;37124;-68
2022/07/16 02:55:51;;;;;;;3.72;2.33;;;;;;;13.71;97.10;101732.88;2096589;28;31582;-68
2022/07/16 02:56:53;;;;;;;4.88;2.70;;;;;;;13.68;97.64;101724.84;2104945;28;20117;-68
2022/07/16 02:57:55;;;;;;;6.13;3.42;;;;;;;13.66;98.17;101728.53;2097255;28;28015;-68
2022/07/16 02:58:58;;;;;;;9.07;3.60;;;;;;;13.62;98.71;101732.19;2097134;28;20167;-68
2022/07/16 02:59:59;;;;;;;6.18;2.60;;;;;;;13.58;98.60;101730.50;2097768;28;20037;-68
2022/07/16 03:01:04;;;;;;;6.90;3.42;;;;;;;13.54;98.98;101733.25;2097453;28;20041;-68
2022/07/16 03:02:06;;;;;;;4.20;2.92;;;;;;;13.51;99.21;101736.03;2097447;28;20041;-68
2022/07/16 03:03:08;;;;;;;6.07;3.22;;;;;;;13.49;98.90;101734.25;2096947;28;27211;-68
2022/07/16 03:04:10;;;;;;;8.48;3.53;;;;;;;13.47;99.35;101734.28;2097129;28;25916;-68
2022/07/16 03:05:12;;;;;;;7.43;2.85;;;;;;;13.41;98.80;101736.25;2096692;28;25728;-68
2022/07/16 03:06:14;;;;;;;5.05;2.55;;;;;;;13.39;99.35;101733.59;2097121;28;20041;-68
2022/07/16 03:07:16;;;;;;;7.60;3.15;;;;;;;13.42;100.00;101735.31;2096518;28;32189;-68
2022/07/16 03:08:18;;;;;;;3.83;2.30;;;;;;;13.37;99.97;101738.13;2096177;28;20122;-68
2022/07/16 03:09:20;;;;;;;6.00;3.00;;;;;;;13.34;99.96;101740.88;2097396;28;20086;-68
2022/07/16 03:10:22;;;;;;;6.45;3.20;;;;;;;13.33;100.00;101734.63;2097399;28;22106;-68
2022/07/16 03:11:24;;;;;;;6.40;2.80;;;;;;;13.32;100.00;101743.59;2096716;28;20126;-68
2022/07/16 03:12:26;;;;;;;5.57;3.15;;;;;;;13.32;100.00;101732.84;2096634;28;26865;-67
2022/07/16 03:13:27;;;;;;;11.48;3.30;;;;;;;13.33;100.00;101742.69;2096057;28;25595;-67
2022/07/16 03:14:29;;;;;;;6.28;3.05;;;;;;;13.32;100.00;101743.59;2104679;28;20271;-68
2022/07/16 03:15:31;;;;;;;5.25;3.13;;;;;;;13.33;100.00;101739.09;2104536;28;26926;-67
2022/07/16 03:16:33;;;;;;;9.60;3.40;;;;;;;13.30;100.00;101744.53;2097057;28;25148;-68
2022/07/16 03:17:35;;;;;;;8.27;3.35;;;;;;;13.27;100.00;101748.16;2096895;28;39301;-68
2022/07/16 03:18:36;;;;;;;4.25;2.67;;;;;;;13.23;100.00;101749.13;2097073;28;21992;-67
2022/07/16 03:19:40;;;;;;;4.93;3.50;;;;;;;13.26;100.00;101743.72;2097306;28;20037;-67
2022/07/16 03:20:42;;;;;;;6.20;2.92;;;;;;;13.26;100.00;101748.19;2097178;28;20163;-67
2022/07/16 03:21:43;;;;;;;6.32;2.95;;;;;;;13.24;100.00;101750.03;2096176;28;24808;-67
2022/07/16 03:22:46;;;;;;;3.50;2.63;;;;;;;13.21;100.00;101753.66;2097325;28;25110;-67
2022/07/16 03:23:48;;;;;;;9.57;3.28;;;;;;;13.21;100.00;101755.44;2096661;28;24087;-67
2022/07/16 03:24:50;;;;;;;8.30;3.10;;;;;;;13.17;100.00;101755.53;2097206;28;26225;-67
2022/07/16 03:25:52;;;;;;;5.32;2.33;;;;;;;13.14;100.00;101752.91;2097182;28;24190;-67
2022/07/16 03:26:54;;;;;;;6.28;2.67;;;;;;;13.15;100.00;101751.09;2096812;28;23645;-67
2022/07/16 03:28:05;;;;;;;6.50;2.53;;;;;;;13.17;100.00;101757.31;2097579;28;20041;-69
2022/07/16 03:29:07;;;;;;;5.65;2.50;;;;;;;13.14;100.00;101762.78;2097040;28;23653;-67
2022/07/16 03:30:13;;;;;;;7.38;2.60;;;;;;;13.15;100.00;101761.84;2096682;28;32593;-67
2022/07/16 03:31:17;;;;;;;4.35;2.80;;;;;;;13.10;100.00;101769.13;2096869;28;20546;-67
2022/07/16 03:32:18;;;;;;;4.00;2.47;;;;;;;13.11;100.00;101760.16;2097701;28;20914;-67
2022/07/16 03:33:20;;;;;;;4.88;2.50;;;;;;;13.10;100.00;101761.06;2097335;28;20888;-67
2022/07/16 03:34:26;;;;;;;8.15;2.50;;;;;;;13.07;100.00;101759.31;2096624;28;21072;-68
2022/07/16 03:35:29;;;;;;;8.90;3.17;;;;;;;13.07;100.00;101763.81;2096536;28;37987;-68
2022/07/16 03:36:33;;;;;;;8.77;2.60;;;;;;;13.06;100.00;101762.03;2103937;28;28098;-67
2022/07/16 03:38:57;;;;;;;10.15;3.03;;;;;;;13.04;100.00;101764.75;2106124;28;30082;-67
2022/07/16 03:39:05;;;;;;;7.47;2.72;;;;;;;13.04;100.00;101769.25;2097354;28;20071;-68
2022/07/16 03:40:08;;;;;;;6.10;2.70;;;;;;;13.05;100.00;101769.22;2096823;28;22370;-67
2022/07/16 03:41:10;;;;;;;8.10;2.35;;;;;;;13.02;100.00;101763.91;2096962;28;23782;-68
2022/07/16 03:42:14;;;;;;;8.18;2.47;;;;;;;13.03;100.00;101776.44;2096745;28;27714;-67
2022/07/16 03:43:16;;;;;;;8.82;2.40;;;;;;;13.01;100.00;101769.31;2095607;28;39297;-67
2022/07/16 03:44:17;;;;;;;6.60;2.47;;;;;;;12.98;100.00;101770.25;2096700;28;26601;-68
2022/07/16 03:45:20;;;;;;;9.27;2.30;;;;;;;13.01;100.00;101769.31;2096860;28;22295;-68
2022/07/16 03:46:22;;;;;;;6.13;1.98;;;;;;;12.97;100.00;101774.75;2104755;28;21950;-68
2022/07/16 03:47:27;;;;;;;4.68;2.17;;;;;;;12.96;100.00;101775.66;2104314;28;20897;-68
2022/07/16 03:48:30;;;;;;;9.35;2.20;;;;;;;12.96;100.00;101778.34;2097546;28;20072;-67
2022/07/16 03:49:33;;;;;;;3.78;2.03;;;;;;;12.97;100.00;101782.81;2096768;28;27471;-67
2022/07/16 03:50:35;;;;;;;7.28;2.10;;;;;;;12.96;100.00;101780.16;2096808;28;28420;-67
2022/07/16 03:51:37;;;;;;;6.40;2.58;;;;;;;13.01;100.00;101782.75;2096036;28;28042;-67
2022/07/16 03:52:39;;;;;;;6.30;2.40;;;;;;;13.01;100.00;101780.97;2096430;28;20174;-67
2022/07/16 03:53:41;;;;;;;7.80;2.30;;;;;;;13.02;100.00;101781.84;2096462;28;33517;-68
2022/07/16 03:54:48;;;;;;;7.22;2.08;;;;;;;13.03;100.00;101789.88;2096547;28;30347;-67
2022/07/16 03:55:50;;;;;;;7.10;2.13;;;;;;;13.05;100.00;101777.28;2097954;28;20953;-68
2022/07/16 03:56:52;;;;;;;6.95;2.17;;;;;;;13.06;100.00;101789.81;2097013;28;23516;-67
2022/07/16 03:57:53;;;;;;;3.80;1.80;;;;;;;13.09;100.00;101784.38;2095410;28;37870;-68
2022/07/16 03:58:55;;;;;;;8.07;2.50;;;;;;;13.16;100.00;101782.47;2096020;28;21005;-67
2022/07/16 03:59:57;;;;;;;6.80;2.60;;;;;;;13.26;100.00;101786.75;2096379;28;29227;-67
2022/07/16 04:00:59;;;;;;;4.07;2.38;;;;;;;13.42;100.00;101786.44;2096714;28;20122;-68
2022/07/16 04:02:01;;;;;;;7.00;2.13;;;;;;;13.66;100.00;101783.22;2097002;28;20940;-68
2022/07/16 04:03:03;;;;;;;3.25;2.00;;;;;;;13.96;100.00;101780.72;2096545;28;22217;-67
2022/07/16 04:04:05;;;;;;;6.95;1.98;;;;;;;14.16;99.71;101773.97;2096140;28;28555;-68
2022/07/16 04:05:09;;;;;;;5.55;1.95;;;;;;;14.35;99.35;101775.28;2096538;28;24005;-69
2022/07/16 04:06:11;;;;;;;3.38;1.48;;;;;;;14.42;98.79;101781.44;2104733;28;20041;-67
2022/07/16 04:07:13;;;;;;;4.95;1.58;;;;;;;14.46;97.87;101780.41;2104423;28;20049;-67
2022/07/16 04:08:15;;;;;;;5.18;1.73;;;;;;;14.50;97.27;101783.00;2097085;28;20360;-67
2022/07/16 04:09:17;;;;;;;3.83;1.30;;;;;;;14.62;96.39;101783.63;2096748;28;20869;-67
2022/07/16 04:10:19;;;;;;;4.63;1.52;;;;;;;14.68;95.67;101781.66;2095241;28;25810;-67
2022/07/16 04:11:21;;;;;;;4.38;1.23;;;;;;;14.74;94.75;101788.69;2104361;28;34830;-67
2022/07/16 04:12:24;;;;;;;7.38;1.40;;;;;;;14.82;94.45;101781.31;2104193;28;20902;-66
2022/07/16 04:13:26;;;;;;;3.40;1.30;;;;;;;14.97;94.33;101780.00;2096176;28;25751;-67
2022/07/16 04:14:30;;;;;;;3.60;1.10;;;;;;;15.19;93.49;101782.09;2095271;28;36007;-67
2022/07/16 04:15:32;;;;;;;3.88;1.20;;;;;;;15.53;91.89;101781.09;2096693;28;24051;-67
2022/07/16 04:16:35;;;;;;;4.13;1.20;;;;;;;16.00;90.42;101774.22;2095622;28;20384;-68
2022/07/16 04:17:41;;;;;;;2.10;0.98;;;;;;;16.36;87.64;101782.06;2098701;28;26212;-67
2022/07/16 04:18:43;;;;;;;3.85;0.82;;;;;;;16.88;86.52;101778.50;2095217;28;20036;-67
2022/07/16 04:19:45;;;;;;;5.82;0.90;;;;;;;17.39;83.45;101777.53;2096550;28;28983;-67
2022/07/16 04:20:48;;;;;;;3.97;1.05;;;;;;;17.64;77.61;101779.28;2095830;28;35792;-67
2022/07/16 04:21:49;;;;;;;3.83;0.77;;;;;;;18.18;79.07;101779.84;2096314;28;32065;-67
2022/07/16 04:22:51;;;;;;;2.85;0.82;;;;;;;18.54;76.97;101777.44;2096608;28;21373;-68
2022/07/16 04:23:54;;;;;;;2.60;0.60;;;;;;;18.80;75.29;101779.00;2095688;28;21547;-68
2022/07/16 04:24:56;;;;;;;2.78;0.80;;;;;;;19.18;73.51;101779.16;2096387;28;20037;-68
2022/07/16 04:25:59;;;;;;;4.32;0.60;;;;;;;19.51;72.39;101778.56;2095502;28;20075;-68
2022/07/16 04:27:03;;;;;;;3.00;0.60;;;;;;;19.82;70.20;101777.13;2096594;28;20087;-67
2022/07/16 04:28:05;;;;;;;3.85;0.70;;;;;;;20.04;69.84;101779.66;2096293;28;27549;-68
2022/07/16 04:29:10;;;;;;;2.75;0.50;;;;;;;20.38;67.95;101781.56;2095442;28;20883;-68
2022/07/16 04:30:14;;;;;;;2.20;0.50;;;;;;;20.37;67.49;101777.09;2096095;28;20041;-67
2022/07/16 04:31:18;;;;;;;3.05;0.50;;;;;;;20.65;66.98;101767.53;2103482;28;28264;-68
2022/07/16 04:32:21;;;;;;;2.97;0.50;;;;;;;21.12;66.11;101777.78;2102861;28;32020;-67
2022/07/16 04:33:25;;;;;;;3.47;0.50;;;;;;;21.16;62.61;101773.03;2095755;28;36197;-68
2022/07/16 04:34:27;;;;;;;1.73;0.40;;;;;;;21.10;64.08;101773.34;2095808;28;32612;-68
2022/07/16 04:35:29;;;;;;;2.28;0.60;;;;;;;21.42;62.72;101774.31;2095918;28;25498;-68
2022/07/16 04:36:30;;;;;;;2.38;0.60;;;;;;;21.02;63.66;101776.50;2096571;28;23776;-68
2022/07/16 04:37:32;;;;;;;2.05;0.65;;;;;;;21.57;62.22;101774.44;2096353;28;21697;-68
2022/07/16 04:38:34;;;;;;;5.45;0.70;;;;;;;21.47;60.85;101776.81;2095952;28;27310;-68
2022/07/16 04:39:36;;;;;;;5.32;0.70;;;;;;;21.18;61.42;101776.56;2096780;28;21997;-67
2022/07/16 04:40:38;;;;;;;1.92;0.77;;;;;;;22.01;60.79;101773.78;2095383;28;22089;-68
2022/07/16 04:41:40;;;;;;;2.45;0.90;;;;;;;22.16;58.62;101780.19;2094923;28;21889;-68
2022/07/16 04:42:44;;;;;;;2.95;0.63;;;;;;;22.05;58.06;101778.09;2096768;28;20900;-68
2022/07/16 04:43:46;;;;;;;1.52;0.40;;;;;;;22.61;57.92;101781.19;2095680;28;20882;-68
2022/07/16 04:44:49;;;;;;;1.42;0.50;;;;;;;23.00;57.53;101777.84;2096640;28;20092;-68
2022/07/16 04:45:53;;;;;;;2.88;0.40;;;;;;;22.63;56.75;101777.41;2096643;28;25386;-68
2022/07/16 04:46:56;;;;;;;4.20;0.60;;;;;;;22.48;57.41;101781.91;2096951;28;20037;-68
2022/07/16 04:47:57;;;;;;;3.08;0.75;;;;;;;21.80;59.28;101786.78;2099108;28;23780;-68
2022/07/16 04:48:59;;;;;;;2.08;0.30;;;;;;;21.24;61.25;101788.94;2095701;28;26946;-67
2022/07/16 04:50:05;;;;;;;1.85;0.35;;;;;;;20.94;62.65;101789.63;2096007;28;35861;-68
2022/07/16 04:51:06;;;;;;;1.52;0.32;;;;;;;20.52;63.52;101791.75;2096252;28;28504;-68
2022/07/16 04:52:08;;;;;;;2.45;0.50;;;;;;;20.21;63.81;101795.16;2095514;28;20774;-68
2022/07/16 04:53:10;;;;;;;1.80;0.40;;;;;;;20.68;64.54;101793.72;2096368;28;26257;-68